createdAt,value
2022-12-28T00:00:44.284Z,2.42
2022-12-28T00:03:31.823Z,2.65
2022-12-28T00:06:21.003Z,2.20
2022-12-28T00:09:13.136Z,2.67
2022-12-28T00:12:00.603Z,2.78
2022-12-28T00:14:48.215Z,2.80
2022-12-28T00:17:35.553Z,2.42
2022-12-28T00:20:23.158Z,2.95
2022-12-28T00:23:10.766Z,2.55
2022-12-28T00:26:06.828Z,2.55
2022-12-28T00:28:59.748Z,2.65
2022-12-28T00:31:49.108Z,2.30
2022-12-28T00:34:36.484Z,2.03
2022-12-28T00:37:23.979Z,2.58
2022-12-28T00:40:12.132Z,2.67
2022-12-28T00:43:01.219Z,2.60
2022-12-28T00:45:49.770Z,3.22
2022-12-28T00:48:37.063Z,2.60
2022-12-28T00:51:23.991Z,2.85
2022-12-28T00:54:11.829Z,3.15
2022-12-28T00:56:59.294Z,2.85
2022-12-28T00:59:48.093Z,2.60
2022-12-28T01:02:35.698Z,3.00
2022-12-28T01:05:23.319Z,3.42
2022-12-28T01:08:10.499Z,2.95
2022-12-28T01:10:57.947Z,3.05
2022-12-28T01:13:45.767Z,3.58
2022-12-28T01:16:38.817Z,2.70
2022-12-28T01:19:29.219Z,2.50
2022-12-28T01:22:19.926Z,2.20
2022-12-28T01:25:11.085Z,2.38
2022-12-28T01:28:01.598Z,3.30
2022-12-28T01:30:51.239Z,2.55
2022-12-28T01:33:42.464Z,2.88
2022-12-28T01:36:35.410Z,3.20
2022-12-28T01:39:25.378Z,2.83
2022-12-28T01:42:19.372Z,3.20
2022-12-28T01:45:19.826Z,3.28
2022-12-28T01:48:22.595Z,2.85
2022-12-28T01:51:14.564Z,2.78
2022-12-28T01:54:05.457Z,2.85
2022-12-28T01:56:55.850Z,3.80
2022-12-28T02:00:02.343Z,2.67
2022-12-28T02:02:55.842Z,2.72
2022-12-28T02:05:47.129Z,3.00
2022-12-28T02:08:44.396Z,3.15
2022-12-28T02:11:35.186Z,3.58
2022-12-28T02:14:23.485Z,2.83
2022-12-28T02:17:15.102Z,3.65
2022-12-28T02:20:02.855Z,4.35
2022-12-28T02:23:15.496Z,3.15
2022-12-28T02:26:35.177Z,3.70
2022-12-28T02:29:47.917Z,3.00
2022-12-28T02:32:53.223Z,2.67
2022-12-28T02:35:47.748Z,4.20
2022-12-28T02:38:40.466Z,2.90
2022-12-28T02:41:28.258Z,3.45
2022-12-28T02:44:36.557Z,3.53
2022-12-28T02:47:42.346Z,2.92
2022-12-28T02:50:38.151Z,3.20
2022-12-28T02:53:45.585Z,3.25
2022-12-28T02:56:42.690Z,3.20
2022-12-28T02:59:48.203Z,3.33
2022-12-28T03:02:50.589Z,3.30
2022-12-28T03:06:03.234Z,2.90
2022-12-28T03:08:56.787Z,2.88
2022-12-28T03:11:49.803Z,3.13
2022-12-28T03:14:42.954Z,3.28
2022-12-28T03:17:50.524Z,3.33
2022-12-28T03:20:57.683Z,2.85
2022-12-28T03:24:05.473Z,3.00
2022-12-28T03:27:12.047Z,2.95
2022-12-28T03:30:21.961Z,2.60
2022-12-28T03:33:11.693Z,2.45
2022-12-28T03:36:09.705Z,2.95
2022-12-28T03:39:03.237Z,3.22
2022-12-28T03:42:14.656Z,2.70
2022-12-28T03:45:07.276Z,2.60
2022-12-28T03:47:55.964Z,3.10
2022-12-28T03:50:45.759Z,3.28
2022-12-28T03:53:41.232Z,2.63
2022-12-28T03:56:29.948Z,3.30
2022-12-28T03:59:18.179Z,3.63
2022-12-28T04:02:05.847Z,3.05
2022-12-28T04:04:53.159Z,2.90
2022-12-28T04:07:40.659Z,3.42
2022-12-28T04:10:29.744Z,2.92
2022-12-28T04:13:17.390Z,3.13
2022-12-28T04:16:07.718Z,2.92
2022-12-28T04:18:55.891Z,2.65
2022-12-28T04:21:43.538Z,2.63
2022-12-28T04:24:31.279Z,3.45
2022-12-28T04:27:19.992Z,2.92
2022-12-28T04:30:08.902Z,3.30
2022-12-28T04:32:56.727Z,2.70
2022-12-28T04:35:44.315Z,1.95
2022-12-28T04:38:31.767Z,4.13
2022-12-28T04:41:19.426Z,2.50
2022-12-28T04:44:08.556Z,3.10
2022-12-28T04:46:56.014Z,2.90
2022-12-28T04:49:43.325Z,2.95
2022-12-28T04:52:30.979Z,2.58
2022-12-28T04:55:32.785Z,3.08
2022-12-28T04:58:20.788Z,3.05
2022-12-28T05:01:12.324Z,3.25
2022-12-28T05:04:00.534Z,3.03
2022-12-28T05:06:47.794Z,3.15
2022-12-28T05:09:35.582Z,3.20
2022-12-28T05:12:22.911Z,3.38
2022-12-28T05:15:10.359Z,3.45
2022-12-28T05:17:59.128Z,2.75
2022-12-28T05:20:46.889Z,3.20
2022-12-28T05:23:35.952Z,2.42
2022-12-28T05:26:24.573Z,3.47
2022-12-28T05:29:11.692Z,3.38
2022-12-28T05:31:59.263Z,3.00
2022-12-28T05:34:48.140Z,2.78
2022-12-28T05:37:35.537Z,3.38
2022-12-28T05:40:22.491Z,3.03
2022-12-28T05:43:10.217Z,3.53
2022-12-28T05:46:01.886Z,3.33
2022-12-28T05:48:50.018Z,2.97
2022-12-28T05:51:40.032Z,2.88
2022-12-28T05:54:27.769Z,3.40
2022-12-28T05:57:15.376Z,3.55
2022-12-28T06:00:03.186Z,2.97
2022-12-28T06:02:50.614Z,3.10
2022-12-28T06:05:37.873Z,3.63
2022-12-28T06:08:26.995Z,3.13
2022-12-28T06:11:16.316Z,2.83
2022-12-28T06:14:05.925Z,3.20
2022-12-28T06:16:53.516Z,3.28
2022-12-28T06:19:41.064Z,3.40
2022-12-28T06:22:28.909Z,3.30
2022-12-28T06:25:17.469Z,3.00
2022-12-28T06:28:04.740Z,2.67
2022-12-28T06:30:52.976Z,2.70
2022-12-28T06:33:41.283Z,2.20
2022-12-28T06:36:30.427Z,2.60
2022-12-28T06:39:17.766Z,2.40
2022-12-28T06:42:06.771Z,2.53
2022-12-28T06:44:54.463Z,2.58
2022-12-28T06:47:41.791Z,2.42
2022-12-28T06:50:28.953Z,2.55
2022-12-28T06:53:16.379Z,2.30
2022-12-28T06:56:06.916Z,2.40
2022-12-28T06:59:02.317Z,2.42
2022-12-28T07:01:50.383Z,2.38
2022-12-28T07:04:37.775Z,2.20
2022-12-28T07:07:25.301Z,2.33
2022-12-28T07:10:12.773Z,2.28
2022-12-28T07:12:59.614Z,2.17
2022-12-28T07:15:48.079Z,2.17
2022-12-28T07:18:35.425Z,2.75
2022-12-28T07:21:24.530Z,2.72
2022-12-28T07:24:12.062Z,2.58
2022-12-28T07:26:59.236Z,2.50
2022-12-28T07:29:46.731Z,2.33
2022-12-28T07:32:37.833Z,2.13
2022-12-28T07:35:25.398Z,2.55
2022-12-28T07:38:16.601Z,2.13
2022-12-28T07:41:11.667Z,2.35
2022-12-28T07:43:59.321Z,2.10
2022-12-28T07:46:46.454Z,2.47
2022-12-28T07:49:35.692Z,2.38
2022-12-28T07:52:23.051Z,2.28
2022-12-28T07:55:10.597Z,2.70
2022-12-28T07:57:58.166Z,3.20
2022-12-28T08:00:45.643Z,2.78
2022-12-28T08:03:33.374Z,2.67
2022-12-28T08:06:23.688Z,2.25
2022-12-28T08:09:13.084Z,3.15
2022-12-28T08:12:00.357Z,3.15
2022-12-28T08:14:47.969Z,2.90
2022-12-28T08:17:35.493Z,3.15
2022-12-28T08:20:23.076Z,3.25
2022-12-28T08:23:12.035Z,2.97
2022-12-28T08:26:06.538Z,2.40
2022-12-28T08:31:41.666Z,2.90
2022-12-28T08:34:28.692Z,2.67
2022-12-28T08:37:16.215Z,2.35
2022-12-28T08:40:06.331Z,1.90
2022-12-28T08:42:55.393Z,2.10
2022-12-28T08:45:42.666Z,2.15
2022-12-28T08:48:30.272Z,1.73
2022-12-28T08:51:20.619Z,2.60
2022-12-28T08:54:09.346Z,1.77
2022-12-28T08:56:58.481Z,2.08
2022-12-28T08:59:45.860Z,2.58
2022-12-28T09:02:33.439Z,1.70
2022-12-28T09:05:21.003Z,2.45
2022-12-28T09:08:08.646Z,2.10
2022-12-28T09:10:56.162Z,1.55
2022-12-28T09:13:45.124Z,2.00
2022-12-28T09:16:32.734Z,2.25
2022-12-28T09:19:20.857Z,2.00
2022-12-28T09:22:08.630Z,1.70
2022-12-28T09:24:56.120Z,1.90
2022-12-28T09:27:43.660Z,1.77
2022-12-28T09:30:32.764Z,2.10
2022-12-28T09:34:05.507Z,2.00
2022-12-28T09:36:46.295Z,2.08
2022-12-28T09:39:33.689Z,1.98
2022-12-28T09:42:25.410Z,2.00
2022-12-28T09:45:14.344Z,1.90
2022-12-28T09:48:07.721Z,1.70
2022-12-28T09:50:55.116Z,1.57
2022-12-28T09:53:42.879Z,1.80
2022-12-28T09:56:36.275Z,2.00
2022-12-28T09:59:27.018Z,1.60
2022-12-28T10:02:20.095Z,2.30
2022-12-28T10:05:10.120Z,1.63
2022-12-28T10:08:04.566Z,1.92
2022-12-28T10:13:56.331Z,1.60
2022-12-28T10:16:48.517Z,1.38
2022-12-28T10:19:36.352Z,1.67
2022-12-28T10:22:26.227Z,1.63
2022-12-28T10:25:15.538Z,1.80
2022-12-28T10:28:08.586Z,1.75
2022-12-28T10:31:06.364Z,1.88
2022-12-28T10:33:54.064Z,1.50
2022-12-28T10:36:41.832Z,1.67
2022-12-28T10:39:33.502Z,1.90
2022-12-28T10:42:27.700Z,1.88
2022-12-28T10:45:19.231Z,2.25
2022-12-28T10:48:15.394Z,2.00
2022-12-28T10:51:12.907Z,2.25
2022-12-28T10:54:00.583Z,2.05
2022-12-28T10:56:50.792Z,2.03
2022-12-28T10:59:39.790Z,1.70
2022-12-28T11:02:30.146Z,1.50
2022-12-28T11:05:21.996Z,1.73
2022-12-28T11:08:15.090Z,1.88
2022-12-28T11:11:03.125Z,1.33
2022-12-28T11:13:53.424Z,1.63
2022-12-28T11:16:42.699Z,1.90
2022-12-28T11:19:30.447Z,1.65
2022-12-28T11:22:23.775Z,1.70
2022-12-28T11:25:16.149Z,2.37
2022-12-28T11:28:07.298Z,1.80
2022-12-28T11:30:57.753Z,1.85
2022-12-28T11:33:47.134Z,2.03
2022-12-28T11:36:40.425Z,1.98
2022-12-28T11:39:43.941Z,1.88
2022-12-28T11:42:55.960Z,1.98
2022-12-28T11:45:53.888Z,2.05
2022-12-28T11:48:49.721Z,2.30
2022-12-28T11:51:38.719Z,1.88
2022-12-28T11:54:38.536Z,2.60
2022-12-28T11:57:36.182Z,2.13
2022-12-28T12:00:49.025Z,2.67
2022-12-28T12:04:13.826Z,2.63
2022-12-28T12:07:20.296Z,2.90
2022-12-28T12:10:34.106Z,2.35
2022-12-28T12:13:42.568Z,2.08
2022-12-28T12:16:34.088Z,2.25
2022-12-28T12:19:25.636Z,2.65
2022-12-28T12:22:19.275Z,2.20
2022-12-28T12:25:15.714Z,3.20
2022-12-28T12:28:10.158Z,2.30
2022-12-28T12:30:58.482Z,2.78
2022-12-28T12:33:49.680Z,3.45
2022-12-28T12:37:05.514Z,2.40
2022-12-28T12:40:09.024Z,2.88
2022-12-28T12:43:15.495Z,2.35
2022-12-28T12:46:28.523Z,2.58
2022-12-28T12:49:44.946Z,2.53
2022-12-28T12:52:42.498Z,2.17
2022-12-28T12:55:47.854Z,2.45
2022-12-28T12:58:49.276Z,2.63
2022-12-28T13:01:45.921Z,2.60
2022-12-28T13:04:36.372Z,2.53
2022-12-28T13:07:26.713Z,2.53
2022-12-28T13:10:21.306Z,2.58
2022-12-28T13:13:26.778Z,2.50
2022-12-28T13:16:18.988Z,2.80
2022-12-28T13:19:08.198Z,3.03
2022-12-28T13:21:56.768Z,2.40
2022-12-28T13:24:46.022Z,2.42
2022-12-28T13:27:36.385Z,2.17
2022-12-28T13:30:26.318Z,2.80
2022-12-28T13:33:22.156Z,2.85
2022-12-28T13:36:15.783Z,2.88
2022-12-28T13:39:12.308Z,2.70
2022-12-28T13:42:03.695Z,2.47
2022-12-28T13:44:52.347Z,2.38
2022-12-28T13:47:43.947Z,2.47
2022-12-28T13:50:32.599Z,2.60
2022-12-28T13:53:23.577Z,2.40
2022-12-28T13:56:14.583Z,1.85
2022-12-28T13:59:04.919Z,2.13
2022-12-28T14:01:53.663Z,2.55
2022-12-28T14:04:52.372Z,1.95
2022-12-28T14:07:40.649Z,1.83
2022-12-28T14:10:28.893Z,1.95
2022-12-28T14:13:18.275Z,2.22
2022-12-28T14:16:07.107Z,2.15
2022-12-28T14:18:54.949Z,2.00
2022-12-28T14:21:46.254Z,2.58
2022-12-28T14:24:33.951Z,1.85
2022-12-28T14:27:21.732Z,2.63
2022-12-28T14:30:23.183Z,2.28
2022-12-28T14:36:25.244Z,1.90
2022-12-28T14:39:26.830Z,2.15
2022-12-28T14:42:25.547Z,1.80
2022-12-28T14:45:24.417Z,2.38
2022-12-28T14:48:25.189Z,2.13
2022-12-28T14:51:28.927Z,2.15
2022-12-28T14:54:21.393Z,1.95
2022-12-28T14:57:18.435Z,2.45
2022-12-28T15:00:08.877Z,1.65
2022-12-28T15:02:57.587Z,1.55
2022-12-28T15:05:46.339Z,2.08
2022-12-28T15:08:34.155Z,2.30
2022-12-28T15:11:24.714Z,1.80
2022-12-28T15:14:12.124Z,2.00
2022-12-28T15:16:59.423Z,2.25
2022-12-28T15:19:47.329Z,1.98
2022-12-28T15:22:35.092Z,2.40
2022-12-28T15:25:22.657Z,2.08
2022-12-28T15:28:11.773Z,2.25
2022-12-28T15:30:59.418Z,2.20
2022-12-28T15:33:46.994Z,1.90
2022-12-28T15:36:34.388Z,2.58
2022-12-28T15:39:21.994Z,2.72
2022-12-28T15:42:09.289Z,2.30
2022-12-28T15:44:58.421Z,1.80
2022-12-28T15:47:45.625Z,2.10
2022-12-28T15:50:33.299Z,2.22
2022-12-28T15:53:20.451Z,2.40
2022-12-28T15:56:08.600Z,2.42
2022-12-28T15:58:57.395Z,2.40
2022-12-28T16:01:47.496Z,1.92
2022-12-28T16:04:35.360Z,2.22
2022-12-28T16:07:23.179Z,2.13
2022-12-28T16:10:11.150Z,2.00
2022-12-28T16:12:58.742Z,2.47
2022-12-28T16:15:46.314Z,2.20
2022-12-28T16:18:35.814Z,1.83
2022-12-28T16:21:23.496Z,1.85
2022-12-28T16:24:11.709Z,1.90
2022-12-28T16:26:59.438Z,2.08
2022-12-28T16:29:52.693Z,1.70
2022-12-28T16:32:43.005Z,1.95
2022-12-28T16:35:32.266Z,1.95
2022-12-28T16:38:21.325Z,2.53
2022-12-28T16:41:09.018Z,2.45
2022-12-28T16:44:02.385Z,2.20
2022-12-28T16:46:50.590Z,1.60
2022-12-28T16:49:41.093Z,2.30
2022-12-28T16:52:29.875Z,2.00
2022-12-28T16:55:17.790Z,1.75
2022-12-28T16:58:05.255Z,1.42
2022-12-28T17:00:52.891Z,1.40
2022-12-28T17:03:40.240Z,1.77
2022-12-28T17:06:27.554Z,1.60
2022-12-28T17:09:16.055Z,2.13
2022-12-28T17:12:03.634Z,2.40
2022-12-28T17:14:51.060Z,1.58
2022-12-28T17:17:38.079Z,1.85
2022-12-28T17:20:27.569Z,2.08
2022-12-28T17:23:14.741Z,1.90
2022-12-28T17:26:03.681Z,2.20
2022-12-28T17:28:51.315Z,2.35
2022-12-28T17:31:38.808Z,1.55
2022-12-28T17:34:26.183Z,1.83
2022-12-28T17:37:13.635Z,1.75
2022-12-28T17:40:00.633Z,1.83
2022-12-28T17:42:49.425Z,1.98
2022-12-28T17:45:37.718Z,1.90
2022-12-28T17:48:27.980Z,2.08
2022-12-28T17:51:15.732Z,2.40
2022-12-28T17:54:03.291Z,2.17
2022-12-28T17:56:50.637Z,2.42
2022-12-28T17:59:39.916Z,2.40
2022-12-28T18:02:27.594Z,2.00
2022-12-28T18:05:14.887Z,2.10
2022-12-28T18:08:02.482Z,2.38
2022-12-28T18:10:50.316Z,2.65
2022-12-28T18:13:37.575Z,2.38
2022-12-28T18:16:27.006Z,2.20
2022-12-28T18:19:14.548Z,2.45
2022-12-28T18:22:02.207Z,2.05
2022-12-28T18:24:49.960Z,2.95
2022-12-28T18:27:37.454Z,3.35
2022-12-28T18:30:25.095Z,2.58
2022-12-28T18:33:13.794Z,2.78
2022-12-28T18:36:03.989Z,2.70
2022-12-28T18:38:51.774Z,2.92
2022-12-28T18:41:38.968Z,2.90
2022-12-28T18:44:26.738Z,2.92
2022-12-28T18:47:14.628Z,2.42
2022-12-28T18:50:03.407Z,2.47
2022-12-28T18:52:50.766Z,2.60
2022-12-28T18:55:41.275Z,3.17
2022-12-28T18:58:35.307Z,2.90
2022-12-28T19:02:04.363Z,2.67
2022-12-28T19:04:32.187Z,2.97
2022-12-28T19:07:21.135Z,2.58
2022-12-28T19:10:15.999Z,2.88
2022-12-28T19:13:03.923Z,2.20
2022-12-28T19:15:52.261Z,2.70
2022-12-28T19:18:39.632Z,2.50
2022-12-28T19:21:29.398Z,2.30
2022-12-28T19:24:20.248Z,2.83
2022-12-28T19:27:07.783Z,2.45
2022-12-28T19:29:55.318Z,1.90
2022-12-28T19:32:42.781Z,2.30
2022-12-28T19:35:30.439Z,2.88
2022-12-28T19:38:18.184Z,2.65
2022-12-28T19:41:09.075Z,2.60
2022-12-28T19:43:56.666Z,2.53
2022-12-28T19:46:44.459Z,2.40
2022-12-28T19:49:31.705Z,2.33
2022-12-28T19:52:19.196Z,2.75
2022-12-28T19:55:07.155Z,2.70
2022-12-28T19:57:56.572Z,2.45
2022-12-28T20:00:44.151Z,2.78
2022-12-28T20:03:31.803Z,2.83
2022-12-28T20:06:22.608Z,3.00
2022-12-28T20:09:09.994Z,2.78
2022-12-28T20:11:57.650Z,2.33
2022-12-28T20:14:46.631Z,2.60
2022-12-28T20:17:35.452Z,2.80
2022-12-28T20:20:26.970Z,2.72
2022-12-28T20:23:15.925Z,2.90
2022-12-28T20:26:03.488Z,2.58
2022-12-28T20:28:51.733Z,2.33
2022-12-28T20:31:40.833Z,2.67
2022-12-28T20:34:28.351Z,2.78
2022-12-28T20:37:15.715Z,2.67
2022-12-28T20:40:04.363Z,2.88
2022-12-28T20:43:09.881Z,2.78
2022-12-28T20:45:57.170Z,2.92
2022-12-28T20:48:46.094Z,3.00
2022-12-28T20:51:33.946Z,2.85
2022-12-28T20:54:22.298Z,2.60
2022-12-28T20:57:09.749Z,2.95
2022-12-28T20:59:58.472Z,2.70
2022-12-28T21:02:45.891Z,2.83
2022-12-28T21:05:34.909Z,3.20
2022-12-28T21:08:26.088Z,2.90
2022-12-28T21:11:17.850Z,2.50
2022-12-28T21:14:05.271Z,2.70
2022-12-28T21:16:52.787Z,2.80
2022-12-28T21:19:40.074Z,3.30
2022-12-28T21:22:29.186Z,2.97
2022-12-28T21:25:16.837Z,2.63
2022-12-28T21:28:04.227Z,2.35
2022-12-28T21:30:54.717Z,2.53
2022-12-28T21:33:42.663Z,2.55
2022-12-28T21:36:30.028Z,2.67
2022-12-28T21:39:18.930Z,3.35
2022-12-28T21:42:06.485Z,2.85
2022-12-28T21:44:54.214Z,2.30
2022-12-28T21:47:41.903Z,2.63
2022-12-28T21:50:29.003Z,3.00
2022-12-28T21:53:16.623Z,2.60
2022-12-28T21:56:05.925Z,2.97
2022-12-28T21:58:53.460Z,2.35
2022-12-28T22:01:58.841Z,2.50
2022-12-28T22:05:15.051Z,3.13
2022-12-28T22:08:16.092Z,3.03
2022-12-28T22:11:22.345Z,3.22
2022-12-28T22:14:09.435Z,2.72
2022-12-28T22:16:57.136Z,2.83
2022-12-28T22:19:44.516Z,2.83
2022-12-28T22:22:31.979Z,3.10
2022-12-28T22:25:19.636Z,2.35
2022-12-28T22:28:08.881Z,2.80
2022-12-28T22:30:56.538Z,2.50
2022-12-28T22:33:44.085Z,3.15
2022-12-28T22:36:31.148Z,2.97
2022-12-28T22:39:18.651Z,3.38
2022-12-28T22:42:08.422Z,3.13
2022-12-28T22:44:57.285Z,3.47
2022-12-28T22:47:44.898Z,3.60
2022-12-28T22:50:32.243Z,3.05
2022-12-28T22:53:19.942Z,3.13
2022-12-28T22:56:10.927Z,3.60
2022-12-28T22:59:04.224Z,3.00
2022-12-28T23:01:54.622Z,3.50
2022-12-28T23:04:41.830Z,3.00
2022-12-28T23:07:28.980Z,3.35
2022-12-28T23:10:16.751Z,3.30
2022-12-28T23:13:04.728Z,3.30
2022-12-28T23:15:57.981Z,3.25
2022-12-28T23:19:04.171Z,2.55
2022-12-28T23:22:08.854Z,2.78
2022-12-28T23:25:13.516Z,2.28
2022-12-28T23:28:02.551Z,3.03
2022-12-28T23:30:52.064Z,2.55
2022-12-28T23:33:39.742Z,2.33
2022-12-28T23:36:28.723Z,2.80
2022-12-28T23:39:15.998Z,2.92
2022-12-28T23:42:03.467Z,2.28
2022-12-28T23:44:51.048Z,1.90
2022-12-28T23:47:39.706Z,2.00
2022-12-28T23:50:27.478Z,2.47
2022-12-28T23:53:16.469Z,1.67
2022-12-28T23:56:04.010Z,2.30
2022-12-28T23:58:51.506Z,1.90
